• Join FlightAware (Why Join?)
  • Login
  • US Flag 
Rudolph Flight #1: Arrived! 
02:15AM EST


 

Airport Tracker/Info


-or-


 

Live Flight TrackerFlight Track Log ✈ SWA914 ✈ 20-Jul-2013 ✈ KDEN - KLAX

Flight Track Log - Related Links

Times and Time Zones

All times are in EDT time to prevent confusion due to time zone crossing. See the SWA914 flight status page for this flight to view local times or setup timezone preferences in your user account.

Time Position Orientation Groundspeed Altitude Reporting Facility
EDT Latitude Longitude Course Direction KTS MPH feet Rate Location/Type
12:39PM 39.8150 -104.6450 193° South 193 222 6,500  Level FlightAware
12:39PM 39.8040 -104.6490 196° South 204 235 6,900 1,320 Climbing FlightAware
12:39PM 39.7810 -104.6560 193° South 237 273 7,300 1,560 Climbing FlightAware
12:40PM 39.7120 -104.6940 203° Southwest 299 344 9,100 1,860 Climbing FlightAware
12:41PM 39.7040 -104.7120 240° Southwest 298 343 9,600 2,220 Climbing FlightAware
12:41PM 39.7000 -104.7330 256° West 299 344 10,000 1,320 Climbing FlightAware
12:41PM 39.6980 -104.8030 268° West 343 395 10,700 1,620 Climbing FlightAware
12:42PM 39.6970 -104.8890 269° West 366 421 12,100 2,220 Climbing FlightAware
12:43PM 39.6960 -104.9740 269° West 379 436 13,600 2,220 Climbing FlightAware
12:43PM 39.6940 -105.0520 268° West 380 437 15,300 2,460 Climbing FlightAware
12:44PM 39.6880 -105.1520 266° West 388 447 17,300 2,580 Climbing FlightAware
12:45PM 39.6540 -105.2760 250° West 401 461 19,600 2,640 Climbing FlightAware
12:46PM 39.6190 -105.3950 249° West 411 473 21,500 2,340 Climbing FlightAware
12:47PM 39.5880 -105.5000 249° West 415 478 23,000 1,020 Climbing FlightAware
12:47PM 39.5580 -105.6010 249° West 417 480 23,000 600 Level FlightAware
12:48PM 39.5300 -105.7020 250° West 423 487 23,900 1,500 Climbing FlightAware
12:49PM 39.5060 -105.7900 251° West 428 493 25,000 1,440 Climbing FlightAware
12:49PM 39.4830 -105.8730 250° West 433 498 25,900 1,320 Climbing FlightAware
12:50PM 39.4560 -105.9700 250° West 438 504 27,000 1,440 Climbing FlightAware
12:51PM 39.4120 -106.1260 250° West 448 516 28,400 1,620 Climbing FlightAware
12:52PM 39.3730 -106.2650 250° West 449 517 29,900 2,100 Climbing FlightAware
12:53PM 39.3410 -106.3760 250° West 437 503 31,500 2,040 Climbing FlightAware
12:53PM 39.3130 -106.4740 250° West 429 494 32,800 1,680 Climbing FlightAware
12:54PM 39.2880 -106.5630 250° West 425 489 33,700 1,200 Climbing FlightAware
12:55PM 39.2670 -106.6340 249° West 423 487 34,400 1,020 Climbing FlightAware
12:55PM 39.2390 -106.7180 247° West 427 491 35,100 1,140 Climbing FlightAware
12:56PM 39.1700 -106.8330 232° Southwest 432 497 36,000 600 Climbing FlightAware
12:57PM 39.1160 -106.9180 231° Southwest 432 497 36,000  Level FlightAware
12:57PM 39.0650 -106.9980 231° Southwest 433 498 36,000  Level FlightAware
12:58PM 39.0180 -107.0700 230° Southwest 432 497 36,000  Level FlightAware
12:59PM 38.9700 -107.1450 231° Southwest 432 497 36,000  Level FlightAware
12:59PM 38.9220 -107.2190 230° Southwest 433 498 36,000  Level FlightAware
01:00PM 38.8630 -107.3090 230° Southwest 433 498 36,000  Level FlightAware
01:01PM 38.8010 -107.4050 230° Southwest 433 498 36,000  Level FlightAware
01:01PM 38.7500 -107.4830 230° Southwest 433 498 36,000  Level FlightAware
01:02PM 38.7050 -107.5510 230° Southwest 433 498 36,000  Level FlightAware
01:03PM 38.6630 -107.6160 230° Southwest 433 498 36,000  Level FlightAware
01:03PM 38.6190 -107.6820 230° Southwest 433 498 36,000  Level FlightAware
01:04PM 38.5370 -107.8060 230° Southwest 432 497 36,000  Level FlightAware
01:05PM 38.4670 -107.9120 230° Southwest 434 499 36,000  Level FlightAware
01:06PM 38.4180 -107.9860 230° Southwest 434 499 36,000  Level FlightAware
01:06PM 38.3610 -108.0710 229° Southwest 434 499 36,000  Level FlightAware
01:07PM 38.3030 -108.1590 230° Southwest 434 499 36,000  Level FlightAware
01:08PM 38.2520 -108.2350 229° Southwest 434 499 36,000  Level FlightAware
01:08PM 38.2100 -108.2970 229° Southwest 434 499 36,000 60 Level FlightAware
01:09PM 38.1660 -108.3630 230° Southwest 439 505 36,100 660 Climbing FlightAware
01:10PM 38.1070 -108.4500 229° Southwest 434 499 37,000 1,200 Climbing FlightAware
01:11PM 38.0430 -108.5450 229° Southwest 429 494 38,000 660 Climbing FlightAware
01:11PM 37.9810 -108.6370 229° Southwest 435 501 38,000  Level FlightAware
01:12PM 37.9380 -108.7000 229° Southwest 437 503 38,000  Level FlightAware
01:12PM 37.8890 -108.7730 230° Southwest 438 504 38,000  Level FlightAware
01:13PM 37.8290 -108.8600 229° Southwest 441 507 38,000  Level FlightAware
01:14PM 37.7770 -108.9360 229° Southwest 444 511 38,000  Level FlightAware
01:14PM 37.7270 -109.0090 229° Southwest 445 512 38,000  Level FlightAware
01:15PM 37.6910 -109.0620 229° Southwest 446 513 38,000  Level FlightAware
01:16PM 37.6370 -109.1400 229° Southwest 446 513 38,000  Level FlightAware
01:16PM 37.5790 -109.2240 229° Southwest 445 512 38,000  Level FlightAware
01:17PM 37.5220 -109.3070 229° Southwest 442 509 38,000  Level FlightAware
01:18PM 37.4230 -109.4500 229° Southwest 441 507 38,000  Level FlightAware
01:19PM 37.3690 -109.5270 229° Southwest 441 507 38,000  Level FlightAware
01:20PM 37.3110 -109.6100 229° Southwest 441 507 38,000  Level FlightAware
01:20PM 37.2560 -109.6880 228° Southwest 440 506 38,000  Level FlightAware
01:21PM 37.2040 -109.7620 229° Southwest 438 504 38,000  Level FlightAware
01:22PM 37.1450 -109.8470 229° Southwest 437 503 38,000  Level FlightAware
01:23PM 37.0910 -109.9240 229° Southwest 436 502 38,000  Level FlightAware
01:23PM 37.0460 -109.9890 229° Southwest 436 502 38,000  Level FlightAware
01:24PM 37.0020 -110.0520 229° Southwest 436 502 38,000  Level FlightAware
01:24PM 36.9610 -110.1120 229° Southwest 436 502 38,000  Level FlightAware
01:25PM 36.9080 -110.1880 229° Southwest 436 502 38,000  Level FlightAware
01:26PM 36.8550 -110.2640 229° Southwest 436 502 38,000  Level FlightAware
01:26PM 36.8920 -110.4490 284° West 433 498 38,000  Level FlightAware
01:27PM 36.8520 -110.5490 243° Southwest 435 501 38,000  Level FlightAware
01:28PM 36.8190 -110.6350 244° Southwest 437 503 38,000  Level FlightAware
01:28PM 36.7770 -110.7410 244° Southwest 438 504 38,000  Level FlightAware
01:29PM 36.7480 -110.8160 244° Southwest 439 505 38,000  Level FlightAware
01:30PM 36.7060 -110.9220 244° Southwest 439 505 38,000  Level FlightAware
01:30PM 36.6790 -110.9890 243° Southwest 439 505 38,000  Level FlightAware
01:31PM 36.6450 -111.0760 244° Southwest 438 504 38,000  Level FlightAware
01:32PM 36.6060 -111.1740 244° Southwest 438 504 38,000  Level FlightAware
01:33PM 36.5480 -111.3180 243° Southwest 438 504 38,000  Level FlightAware
01:33PM 36.5010 -111.4350 243° Southwest 439 505 38,000  Level FlightAware
01:34PM 36.4630 -111.5300 244° Southwest 439 505 38,000  Level FlightAware
01:35PM 36.4280 -111.6190 244° Southwest 439 505 38,000  Level FlightAware
01:36PM 36.4010 -111.6880 244° Southwest 439 505 38,000  Level FlightAware
01:36PM 36.3640 -111.7840 244° Southwest 440 506 38,000  Level FlightAware
01:37PM 36.3130 -111.9160 244° Southwest 440 506 38,000  Level FlightAware
01:38PM 36.2780 -112.0050 244° Southwest 441 507 38,000  Level FlightAware
01:38PM 36.2440 -112.0910 244° Southwest 442 509 38,000  Level FlightAware
01:39PM 36.2060 -112.1860 244° Southwest 444 511 38,000  Level FlightAware
01:40PM 36.1750 -112.2640 244° Southwest 444 511 38,000  Level FlightAware
01:40PM 36.1370 -112.3610 244° Southwest 444 511 38,000  Level FlightAware
01:41PM 36.0860 -112.4880 244° Southwest 443 510 38,000  Level FlightAware
01:42PM 36.0540 -112.5700 244° Southwest 443 510 38,000  Level FlightAware
01:43PM 36.0120 -112.6740 243° Southwest 443 510 38,000  Level FlightAware
01:43PM 35.9810 -112.7510 244° Southwest 441 507 38,000  Level FlightAware
01:44PM 35.9500 -112.8280 244° Southwest 443 510 38,000  Level FlightAware
01:45PM 35.9120 -112.9210 243° Southwest 443 510 38,000  Level FlightAware
01:45PM 35.8690 -113.0290 244° Southwest 442 509 38,000  Level FlightAware
01:46PM 35.8170 -113.1550 243° Southwest 445 512 38,000  Level FlightAware
01:47PM 35.7870 -113.2290 243° Southwest 445 512 38,000  Level FlightAware
01:48PM 35.7410 -113.3410 243° Southwest 446 513 38,000  Level FlightAware
01:48PM 35.7040 -113.4310 243° Southwest 447 514 38,000  Level FlightAware
01:49PM 35.6750 -113.5020 243° Southwest 450 518 38,000  Level FlightAware
01:49PM 35.6460 -113.5730 243° Southwest 452 520 38,000  Level FlightAware
01:50PM 35.6170 -113.6430 243° Southwest 453 521 38,000  Level FlightAware
01:51PM 35.5700 -113.7580 243° Southwest 456 525 38,000  Level FlightAware
01:52PM 35.5150 -113.8900 243° Southwest 458 527 38,000  Level FlightAware
01:52PM 35.4750 -113.9850 243° Southwest 458 527 38,000  Level FlightAware
01:53PM 35.4250 -114.1040 243° Southwest 457 526 38,000  Level FlightAware
01:54PM 35.3870 -114.1950 243° Southwest 458 527 38,000  Level FlightAware
01:54PM 35.3460 -114.2920 243° Southwest 457 526 38,000  Level FlightAware
01:55PM 35.3190 -114.3580 243° Southwest 457 526 38,000  Level FlightAware
01:56PM 35.2840 -114.4400 242° Southwest 457 526 38,000  Level FlightAware
01:56PM 35.2440 -114.5340 243° Southwest 456 525 38,000  Level FlightAware
01:57PM 35.2140 -114.6030 242° Southwest 454 522 38,000  Level FlightAware
01:57PM 35.1690 -114.7110 243° Southwest 452 520 38,000  Level FlightAware
01:58PM 35.1170 -114.8330 243° Southwest 447 514 38,000  Level FlightAware
01:59PM 35.0750 -114.9300 242° Southwest 445 512 38,000  Level FlightAware
02:00PM 35.0570 -114.9700 241° Southwest 445 512 38,000  Level FlightAware
02:01PM 35.0130 -115.0730 242° Southwest 446 513 38,000  Level FlightAware
02:01PM 34.9830 -115.1430 242° Southwest 447 514 38,000  Level FlightAware
02:02PM 34.8860 -115.3660 242° Southwest 450 518 38,000  Level FlightAware
02:03PM 34.8540 -115.4400 242° Southwest 454 522 38,000 -300 Level FlightAware
02:04PM 34.8230 -115.5110 242° Southwest 457 526 37,600 -780 Descending FlightAware
02:04PM 34.7800 -115.6100 242° Southwest 457 526 36,900 -960 Descending FlightAware
02:05PM 34.7460 -115.6870 242° Southwest 453 521 36,400 -1,200 Descending FlightAware
02:06PM 34.6820 -115.8320 242° Southwest 458 527 35,300 -1,200 Descending FlightAware
02:06PM 34.6480 -115.9090 242° Southwest 459 528 34,800 -960 Descending FlightAware
02:07PM 34.6120 -115.9890 241° Southwest 463 533 34,200 -1,020 Descending FlightAware
02:08PM 34.5650 -116.0960 242° Southwest 467 537 33,500 -1,020 Descending FlightAware
02:08PM 34.5230 -116.1890 241° Southwest 472 543 32,800 -1,620 Descending FlightAware
02:09PM 34.4890 -116.2680 242° Southwest 463 533 31,600 -2,040 Descending FlightAware
02:10PM 34.4500 -116.3550 241° Southwest 454 522 30,300 -1,860 Descending FlightAware
02:10PM 34.4040 -116.4570 241° Southwest 438 504 29,000 -1,680 Descending FlightAware
02:11PM 34.3720 -116.5280 241° Southwest 440 506 28,100 -2,760 Descending FlightAware
02:12PM 34.3290 -116.6240 242° Southwest 457 526 25,500 -2,700 Descending FlightAware
02:12PM 34.2830 -116.7240 241° Southwest 438 504 24,200 -1,920 Descending FlightAware
02:13PM 34.2440 -116.8100 241° Southwest 430 495 22,800 -2,040 Descending FlightAware
02:14PM 34.2100 -116.8850 241° Southwest 425 489 21,600 -2,160 Descending FlightAware
02:14PM 34.1710 -116.9720 242° Southwest 422 486 20,000 -1,980 Descending FlightAware
02:15PM 34.1370 -117.0460 241° Southwest 413 475 18,800 -1,920 Descending FlightAware
02:16PM 34.0950 -117.1380 241° Southwest 403 464 17,300 -1,860 Descending FlightAware
02:17PM 34.0670 -117.2010 242° Southwest 398 458 16,200 -1,920 Descending FlightAware
02:17PM 34.0430 -117.3010 254° West 388 447 14,500 -2,280 Descending FlightAware
02:18PM 34.0330 -117.4040 263° West 381 438 12,900 -1,920 Descending FlightAware
02:19PM 34.0240 -117.5010 264° West 355 409 11,900 -1,080 Descending FlightAware
02:19PM 34.0180 -117.5730 264° West 318 366 11,500 -780 Descending FlightAware
02:20PM 34.0110 -117.6400 263° West 292 336 10,900 -900 Descending FlightAware
02:21PM 34.0050 -117.7080 264° West 276 318 10,100 -720 Descending FlightAware
02:21PM 34.0000 -117.7540 263° West 245 282 9,900 -540 Descending FlightAware
02:22PM 33.9960 -117.7880 262° West 228 262 9,600 -1,140 Descending FlightAware
02:23PM 33.9920 -117.8380 265° West 240 276 8,600 -1,440 Descending FlightAware
02:23PM 33.9850 -117.9010 262° West 237 273 7,900 -1,380 Descending FlightAware
02:24PM 33.9830 -117.9310 265° West 236 272 7,400 -1,260 Descending FlightAware
02:24PM 33.9780 -117.9770 263° West 233 268 6,700 -1,260 Descending FlightAware
02:24PM 33.9750 -118.0070 263° West 231 266 6,200 -1,200 Descending FlightAware
02:25PM 33.9730 -118.0280 263° West 230 265 5,900 -1,080 Descending FlightAware
02:25PM 33.9710 -118.0530 264° West 228 262 5,500 -960 Descending FlightAware
02:26PM 33.9690 -118.0730 263° West 226 260 5,100 -1,080 Descending FlightAware
02:26PM 33.9640 -118.1160 262° West 228 262 4,500 -1,200 Descending FlightAware
02:26PM 33.9630 -118.1250 262° West 229 264 4,300 -1,500 Descending FlightAware
02:27PM 33.9540 -118.2190 263° West 224 258 2,800 -1,320 Descending FlightAware
02:28PM 33.9510 -118.2460 262° West 214 246 2,500 -900 Descending FlightAware
02:28PM 33.9490 -118.2650 263° West 205 236 2,200 -960 Descending FlightAware
02:30PM 33.9380 -118.3750 263° West 143 165 300 -780 Descending FlightAware
02:31PM 33.9360 -118.3940 263° West 143 165 300  Level FlightAware
02:39PM 33.9333 -118.4000 90° East  Level FlightAware Approximate